sensor_id;sensor_type;location;lat;lon;timestamp;pressure;altitude;pressure_sealevel;temperature;humidity
21109;BME280;10712;52.944;9.098;2023-04-01T00:01:02;99286.22;;;18.48;58.56
21109;BME280;10712;52.944;9.098;2023-04-01T00:03:28;99289.09;;;18.46;58.46
21109;BME280;10712;52.944;9.098;2023-04-01T00:05:55;99287.22;;;18.47;58.73
21109;BME280;10712;52.944;9.098;2023-04-01T00:08:23;99289.59;;;18.50;58.46
21109;BME280;10712;52.944;9.098;2023-04-01T00:10:49;99286.38;;;18.46;58.76
21109;BME280;10712;52.944;9.098;2023-04-01T00:13:15;99287.91;;;18.49;58.70
21109;BME280;10712;52.944;9.098;2023-04-01T00:15:43;99281.50;;;18.50;58.74
21109;BME280;10712;52.944;9.098;2023-04-01T00:18:09;99289.94;;;18.47;58.77
21109;BME280;10712;52.944;9.098;2023-04-01T00:20:36;99285.91;;;18.43;58.84
21109;BME280;10712;52.944;9.098;2023-04-01T00:23:02;99286.59;;;18.45;58.82
21109;BME280;10712;52.944;9.098;2023-04-01T00:25:28;99290.28;;;18.44;58.89
21109;BME280;10712;52.944;9.098;2023-04-01T00:27:54;99288.28;;;18.46;58.82
21109;BME280;10712;52.944;9.098;2023-04-01T00:30:20;99289.94;;;18.47;58.75
21109;BME280;10712;52.944;9.098;2023-04-01T00:32:46;99281.66;;;18.48;58.69
21109;BME280;10712;52.944;9.098;2023-04-01T00:35:12;99283.69;;;18.46;58.65
21109;BME280;10712;52.944;9.098;2023-04-01T00:37:38;99289.94;;;18.47;58.78
21109;BME280;10712;52.944;9.098;2023-04-01T00:40:51;99283.06;;;18.44;58.86
21109;BME280;10712;52.944;9.098;2023-04-01T00:43:19;99284.91;;;18.44;59.00
21109;BME280;10712;52.944;9.098;2023-04-01T00:45:48;99277.81;;;18.43;58.92
21109;BME280;10712;52.944;9.098;2023-04-01T00:48:25;99283.38;;;18.41;58.91
21109;BME280;10712;52.944;9.098;2023-04-01T00:51:11;99276.50;;;18.39;58.78
21109;BME280;10712;52.944;9.098;2023-04-01T00:53:43;99279.00;;;18.40;58.86
21109;BME280;10712;52.944;9.098;2023-04-01T00:56:39;99279.22;;;18.39;58.89
21109;BME280;10712;52.944;9.098;2023-04-01T00:59:16;99287.28;;;18.39;58.95
21109;BME280;10712;52.944;9.098;2023-04-01T01:01:45;99284.22;;;18.42;58.94
21109;BME280;10712;52.944;9.098;2023-04-01T01:04:32;99278.16;;;18.40;58.87
21109;BME280;10712;52.944;9.098;2023-04-01T01:13:04;99286.94;;;18.42;59.05
21109;BME280;10712;52.944;9.098;2023-04-01T01:35:29;99288.63;;;18.43;58.99
21109;BME280;10712;52.944;9.098;2023-04-01T01:38:03;99280.84;;;18.40;58.95
21109;BME280;10712;52.944;9.098;2023-04-01T01:40:33;99284.59;;;18.39;59.01
21109;BME280;10712;52.944;9.098;2023-04-01T01:43:06;99285.41;;;18.39;59.04
21109;BME280;10712;52.944;9.098;2023-04-01T01:45:38;99287.28;;;18.39;59.14
21109;BME280;10712;52.944;9.098;2023-04-01T01:48:08;99285.59;;;18.38;59.17
21109;BME280;10712;52.944;9.098;2023-04-01T01:50:35;99281.91;;;18.39;59.14
21109;BME280;10712;52.944;9.098;2023-04-01T01:53:09;99287.28;;;18.39;59.06
21109;BME280;10712;52.944;9.098;2023-04-01T01:55:40;99281.06;;;18.38;58.94
21109;BME280;10712;52.944;9.098;2023-04-01T01:58:32;99286.44;;;18.38;59.10
21109;BME280;10712;52.944;9.098;2023-04-01T02:01:05;99294.72;;;18.37;59.21
21109;BME280;10712;52.944;9.098;2023-04-01T02:03:35;99289.78;;;18.40;59.01
21109;BME280;10712;52.944;9.098;2023-04-01T02:06:07;99286.78;;;18.35;59.00
21109;BME280;10712;52.944;9.098;2023-04-01T02:09:04;99289.34;;;18.29;58.93
21109;BME280;10712;52.944;9.098;2023-04-01T02:11:57;99298.94;;;18.31;59.25
21109;BME280;10712;52.944;9.098;2023-04-01T02:14:43;99297.09;;;18.32;59.10
21109;BME280;10712;52.944;9.098;2023-04-01T02:17:24;99301.28;;;18.34;58.97
21109;BME280;10712;52.944;9.098;2023-04-01T02:19:59;99301.28;;;18.34;59.06
21109;BME280;10712;52.944;9.098;2023-04-01T02:22:32;99304.13;;;18.33;59.01
21109;BME280;10712;52.944;9.098;2023-04-01T02:25:10;99302.47;;;18.32;59.10
21109;BME280;10712;52.944;9.098;2023-04-01T02:27:38;99300.13;;;18.29;59.06
21109;BME280;10712;52.944;9.098;2023-04-01T02:30:06;99295.75;;;18.28;59.08
21109;BME280;10712;52.944;9.098;2023-04-01T02:32:34;99298.09;;;18.31;59.12
21109;BME280;10712;52.944;9.098;2023-04-01T02:35:06;99300.97;;;18.29;59.10
21109;BME280;10712;52.944;9.098;2023-04-01T02:37:32;99301.81;;;18.30;59.19
21109;BME280;10712;52.944;9.098;2023-04-01T02:40:06;99302.81;;;18.29;58.93
21109;BME280;10712;52.944;9.098;2023-04-01T02:42:34;99306.53;;;18.28;58.92
21109;BME280;10712;52.944;9.098;2023-04-01T02:45:00;99301.97;;;18.28;58.97
21109;BME280;10712;52.944;9.098;2023-04-01T02:47:25;99310.06;;;18.28;59.29
21109;BME280;10712;52.944;9.098;2023-04-01T02:49:51;99297.75;;;18.26;59.07
21109;BME280;10712;52.944;9.098;2023-04-01T02:52:32;99309.59;;;18.25;59.10
21109;BME280;10712;52.944;9.098;2023-04-01T02:55:01;99310.59;;;18.24;59.08
21109;BME280;10712;52.944;9.098;2023-04-01T02:57:27;99302.50;;;18.24;59.03
21109;BME280;10712;52.944;9.098;2023-04-01T02:59:53;99311.91;;;18.28;58.89
21109;BME280;10712;52.944;9.098;2023-04-01T03:02:19;99312.63;;;18.22;59.07
21109;BME280;10712;52.944;9.098;2023-04-01T03:04:45;99323.41;;;18.22;59.08
21109;BME280;10712;52.944;9.098;2023-04-01T03:07:11;99323.41;;;18.22;59.18
21109;BME280;10712;52.944;9.098;2023-04-01T03:09:37;99319.00;;;18.21;58.99
21109;BME280;10712;52.944;9.098;2023-04-01T03:12:05;99321.38;;;18.24;59.02
21109;BME280;10712;52.944;9.098;2023-04-01T03:14:36;99324.06;;;18.24;59.07
21109;BME280;10712;52.944;9.098;2023-04-01T03:17:02;99331.66;;;18.20;59.02
21109;BME280;10712;52.944;9.098;2023-04-01T03:19:28;99324.25;;;18.22;59.04
21109;BME280;10712;52.944;9.098;2023-04-01T03:21:54;99325.41;;;18.20;59.10
21109;BME280;10712;52.944;9.098;2023-04-01T03:24:20;99324.78;;;18.18;59.09
21109;BME280;10712;52.944;9.098;2023-04-01T03:26:46;99327.78;;;18.23;59.02
21109;BME280;10712;52.944;9.098;2023-04-01T03:29:12;99319.38;;;18.18;59.11
21109;BME280;10712;52.944;9.098;2023-04-01T03:31:41;99323.94;;;18.17;58.86
21109;BME280;10712;52.944;9.098;2023-04-01T03:34:07;99326.41;;;18.19;59.03
21109;BME280;10712;52.944;9.098;2023-04-01T03:36:33;99325.78;;;18.17;58.97
21109;BME280;10712;52.944;9.098;2023-04-01T03:38:59;99332.16;;;18.16;59.00
21109;BME280;10712;52.944;9.098;2023-04-01T03:41:36;99333.19;;;18.15;58.85
21109;BME280;10712;52.944;9.098;2023-04-01T03:44:03;99330.66;;;18.13;59.12
21109;BME280;10712;52.944;9.098;2023-04-01T03:46:29;99329.81;;;18.13;58.95
21109;BME280;10712;52.944;9.098;2023-04-01T03:48:54;99334.03;;;18.15;58.90
21109;BME280;10712;52.944;9.098;2023-04-01T03:51:20;99336.56;;;18.17;58.96
21109;BME280;10712;52.944;9.098;2023-04-01T03:53:48;99342.28;;;18.14;58.98
21109;BME280;10712;52.944;9.098;2023-04-01T03:56:14;99338.94;;;18.12;59.10
21109;BME280;10712;52.944;9.098;2023-04-01T03:58:41;99343.97;;;18.15;58.96
21109;BME280;10712;52.944;9.098;2023-04-01T04:01:20;99343.97;;;18.15;58.82
21109;BME280;10712;52.944;9.098;2023-04-01T04:03:52;99346.97;;;18.20;58.73
21109;BME280;10712;52.944;9.098;2023-04-01T04:06:19;99352.22;;;18.13;58.99
21109;BME280;10712;52.944;9.098;2023-04-01T04:08:45;99348.88;;;18.11;58.92
21109;BME280;10712;52.944;9.098;2023-04-01T04:11:12;99345.97;;;18.13;59.01
21109;BME280;10712;52.944;9.098;2023-04-01T04:13:41;99346.34;;;18.09;58.92
21109;BME280;10712;52.944;9.098;2023-04-01T04:16:08;99342.97;;;18.07;59.20
21109;BME280;10712;52.944;9.098;2023-04-01T04:18:37;99348.03;;;18.10;59.02
21109;BME280;10712;52.944;9.098;2023-04-01T04:21:03;99346.34;;;18.09;58.92
21109;BME280;10712;52.944;9.098;2023-04-01T04:23:30;99351.72;;;18.09;58.93
21109;BME280;10712;52.944;9.098;2023-04-01T04:26:05;99351.06;;;18.07;59.04
21109;BME280;10712;52.944;9.098;2023-04-01T04:28:32;99354.59;;;18.08;58.91
21109;BME280;10712;52.944;9.098;2023-04-01T04:30:58;99358.97;;;18.09;59.15
21109;BME280;10712;52.944;9.098;2023-04-01T04:33:25;99361.66;;;18.09;58.75
21109;BME280;10712;52.944;9.098;2023-04-01T04:35:56;99364.00;;;18.12;58.65
21109;BME280;10712;52.944;9.098;2023-04-01T04:38:23;99360.81;;;18.08;58.90
21109;BME280;10712;52.944;9.098;2023-04-01T04:40:49;99366.06;;;18.10;58.85
21109;BME280;10712;52.944;9.098;2023-04-01T04:43:17;99359.13;;;18.07;58.93
21109;BME280;10712;52.944;9.098;2023-04-01T04:45:44;99370.25;;;18.13;58.73
21109;BME280;10712;52.944;9.098;2023-04-01T04:48:14;99370.75;;;18.08;58.85
21109;BME280;10712;52.944;9.098;2023-04-01T04:50:49;99373.63;;;18.06;58.72
21109;BME280;10712;52.944;9.098;2023-04-01T04:53:17;99371.94;;;18.05;58.95
21109;BME280;10712;52.944;9.098;2023-04-01T04:55:49;99373.28;;;18.01;59.12
21109;BME280;10712;52.944;9.098;2023-04-01T04:58:24;99378.16;;;18.06;58.89
21109;BME280;10712;52.944;9.098;2023-04-01T05:00:50;99381.38;;;18.01;58.97
21109;BME280;10712;52.944;9.098;2023-04-01T05:03:21;99388.63;;;18.01;58.94
21109;BME280;10712;52.944;9.098;2023-04-01T05:05:52;99380.22;;;18.04;59.07
21109;BME280;10712;52.944;9.098;2023-04-01T05:08:18;99378.84;;;18.00;59.08
21109;BME280;10712;52.944;9.098;2023-04-01T05:10:44;99384.75;;;18.03;58.99
21109;BME280;10712;52.944;9.098;2023-04-01T05:13:11;99385.41;;;18.05;58.91
21109;BME280;10712;52.944;9.098;2023-04-01T05:15:38;99381.38;;;18.01;58.85
21109;BME280;10712;52.944;9.098;2023-04-01T05:18:04;99398.41;;;18.02;59.12
21109;BME280;10712;52.944;9.098;2023-04-01T05:20:29;99400.56;;;18.06;58.84
21109;BME280;10712;52.944;9.098;2023-04-01T05:22:57;99397.53;;;18.01;59.09
21109;BME280;10712;52.944;9.098;2023-04-01T05:25:24;99398.03;;;18.05;59.05
21109;BME280;10712;52.944;9.098;2023-04-01T05:27:50;99395.00;;;18.00;59.06
21109;BME280;10712;52.944;9.098;2023-04-01T05:30:16;99395.88;;;18.00;59.03
21109;BME280;10712;52.944;9.098;2023-04-01T05:32:57;99407.00;;;17.97;59.24
21109;BME280;10712;52.944;9.098;2023-04-01T05:35:24;99403.78;;;18.02;59.25
21109;BME280;10712;52.944;9.098;2023-04-01T05:37:50;99402.94;;;18.01;59.22
21109;BME280;10712;52.944;9.098;2023-04-01T05:40:16;99399.56;;;17.99;59.28
21109;BME280;10712;52.944;9.098;2023-04-01T05:42:42;99411.03;;;18.01;59.17
21109;BME280;10712;52.944;9.098;2023-04-01T05:45:09;99402.94;;;18.01;59.25
21109;BME280;10712;52.944;9.098;2023-04-01T05:47:54;99415.88;;;17.98;59.29
21109;BME280;10712;52.944;9.098;2023-04-01T05:50:20;99414.03;;;17.98;59.25
21109;BME280;10712;52.944;9.098;2023-04-01T05:52:46;99414.03;;;17.98;59.42
21109;BME280;10712;52.944;9.098;2023-04-01T05:55:12;99415.72;;;17.99;59.35
21109;BME280;10712;52.944;9.098;2023-04-01T05:57:37;99417.41;;;18.00;59.16
21109;BME280;10712;52.944;9.098;2023-04-01T06:00:05;99414.88;;;17.99;59.27
21109;BME280;10712;52.944;9.098;2023-04-01T06:02:38;99423.16;;;17.97;59.26
21109;BME280;10712;52.944;9.098;2023-04-01T06:05:20;99424.50;;;18.01;59.20
21109;BME280;10712;52.944;9.098;2023-04-01T06:07:46;99418.78;;;18.04;59.18
21109;BME280;10712;52.944;9.098;2023-04-01T06:10:20;99423.81;;;18.07;59.08
21109;BME280;10712;52.944;9.098;2023-04-01T06:15:55;99431.56;;;18.02;59.29
21109;BME280;10712;52.944;9.098;2023-04-01T06:18:55;99428.19;;;18.00;59.19
21109;BME280;10712;52.944;9.098;2023-04-01T06:43:16;99450.09;;;18.14;59.10
21109;BME280;10712;52.944;9.098;2023-04-01T06:46:06;99456.16;;;18.16;59.12
21109;BME280;10712;52.944;9.098;2023-04-01T06:55:42;99462.22;;;18.18;59.12
21109;BME280;10712;52.944;9.098;2023-04-01T06:58:31;99461.56;;;18.24;59.12
21109;BME280;10712;52.944;9.098;2023-04-01T07:01:03;99471.97;;;18.35;58.98
21109;BME280;10712;52.944;9.098;2023-04-01T07:03:30;99474.03;;;18.25;59.20
21109;BME280;10712;52.944;9.098;2023-04-01T07:06:38;99478.06;;;18.29;59.05
21109;BME280;10712;52.944;9.098;2023-04-01T07:09:12;99473.66;;;18.28;59.12
21109;BME280;10712;52.944;9.098;2023-04-01T07:12:11;99481.75;;;18.28;59.36
21109;BME280;10712;52.944;9.098;2023-04-01T07:15:05;99482.75;;;18.27;59.32
21109;BME280;10712;52.944;9.098;2023-04-01T07:17:39;99480.75;;;18.29;59.22
21109;BME280;10712;52.944;9.098;2023-04-01T07:20:23;99485.81;;;18.32;59.25
21109;BME280;10712;52.944;9.098;2023-04-01T07:22:56;99492.88;;;18.33;59.27
21109;BME280;10712;52.944;9.098;2023-04-01T07:25:46;99499.47;;;18.38;59.26
21109;BME280;10712;52.944;9.098;2023-04-01T07:28:39;99496.75;;;18.38;59.43
21109;BME280;10712;52.944;9.098;2023-04-01T07:34:25;99510.06;;;18.48;59.15
21109;BME280;10712;52.944;9.098;2023-04-01T07:37:00;99513.25;;;18.43;59.36
21109;BME280;10712;52.944;9.098;2023-04-01T07:43:04;99517.13;;;18.41;59.59
21109;BME280;10712;52.944;9.098;2023-04-01T07:45:46;99523.91;;;18.45;59.46
21109;BME280;10712;52.944;9.098;2023-04-01T08:00:19;99536.22;;;18.56;59.46
21109;BME280;10712;52.944;9.098;2023-04-01T08:03:35;99538.75;;;18.57;59.55
21109;BME280;10712;52.944;9.098;2023-04-01T08:09:30;99543.13;;;18.66;59.49
21109;BME280;10712;52.944;9.098;2023-04-01T08:21:35;99560.63;;;18.86;59.64
21109;BME280;10712;52.944;9.098;2023-04-01T08:24:31;99559.94;;;18.93;59.57
21109;BME280;10712;52.944;9.098;2023-04-01T08:27:06;99562.66;;;18.93;59.71
21109;BME280;10712;52.944;9.098;2023-04-01T08:29:48;99574.78;;;18.97;59.52
21109;BME280;10712;52.944;9.098;2023-04-01T08:32:26;99576.97;;;19.01;59.65
21109;BME280;10712;52.944;9.098;2023-04-01T08:35:14;99571.38;;;19.03;59.71
21109;BME280;10712;52.944;9.098;2023-04-01T08:37:45;99576.44;;;19.14;59.70
21109;BME280;10712;52.944;9.098;2023-04-01T08:40:57;99581.16;;;19.12;59.80
21109;BME280;10712;52.944;9.098;2023-04-01T08:52:37;99584.69;;;19.20;59.67
21109;BME280;10712;52.944;9.098;2023-04-01T09:04:21;99598.13;;;19.37;59.85
21109;BME280;10712;52.944;9.098;2023-04-01T09:16:20;99616.88;;;19.46;59.52
21109;BME280;10712;52.944;9.098;2023-04-01T09:19:11;99624.66;;;19.49;59.49
21109;BME280;10712;52.944;9.098;2023-04-01T09:28:19;99626.50;;;19.41;59.69
21109;BME280;10712;52.944;9.098;2023-04-01T09:31:25;99626.31;;;19.42;59.58
21109;BME280;10712;52.944;9.098;2023-04-01T09:34:44;99633.09;;;19.46;59.43
21109;BME280;10712;52.944;9.098;2023-04-01T09:43:44;99633.31;;;19.76;59.14
21109;BME280;10712;52.944;9.098;2023-04-01T09:52:12;99647.78;;;19.91;59.15
21109;BME280;10712;52.944;9.098;2023-04-01T09:58:01;99657.53;;;20.00;59.01
21109;BME280;10712;52.944;9.098;2023-04-01T10:24:38;99672.66;;;20.17;57.06
21109;BME280;10712;52.944;9.098;2023-04-01T10:27:55;99677.41;;;20.15;56.88
21109;BME280;10712;52.944;9.098;2023-04-01T10:36:58;99687.50;;;20.21;56.99
21109;BME280;10712;52.944;9.098;2023-04-01T10:40:07;99685.81;;;20.20;56.71
21109;BME280;10712;52.944;9.098;2023-04-01T10:47:02;99693.50;;;20.09;56.41
21109;BME280;10712;52.944;9.098;2023-04-01T10:56:32;99711.88;;;19.58;55.98
21109;BME280;10712;52.944;9.098;2023-04-01T11:20:45;99765.56;;;18.38;58.31
21109;BME280;10712;52.944;9.098;2023-04-01T11:23:59;99766.22;;;18.32;58.40
21109;BME280;10712;52.944;9.098;2023-04-01T11:27:19;99781.97;;;18.19;58.67
21109;BME280;10712;52.944;9.098;2023-04-01T11:33:02;99783.06;;;18.34;58.62
21109;BME280;10712;52.944;9.098;2023-04-01T11:36:20;99778.66;;;18.33;59.37
21109;BME280;10712;52.944;9.098;2023-04-01T11:39:18;99788.22;;;18.19;60.07
21109;BME280;10712;52.944;9.098;2023-04-01T11:45:35;99795.91;;;18.06;58.93
21109;BME280;10712;52.944;9.098;2023-04-01T11:54:25;99809.66;;;17.95;58.97
21109;BME280;10712;52.944;9.098;2023-04-01T12:09:49;99837.78;;;17.57;59.10
21109;BME280;10712;52.944;9.098;2023-04-01T12:12:27;99839.41;;;17.50;59.37
21109;BME280;10712;52.944;9.098;2023-04-01T12:15:18;99849.63;;;17.20;60.17
21109;BME280;10712;52.944;9.098;2023-04-01T12:17:56;99850.91;;;17.52;59.53
21109;BME280;10712;52.944;9.098;2023-04-01T12:20:41;99854.28;;;17.54;59.79
21109;BME280;10712;52.944;9.098;2023-04-01T12:23:29;99866.28;;;17.59;60.11
21109;BME280;10712;52.944;9.098;2023-04-01T12:31:51;99881.38;;;17.35;59.43
21109;BME280;10712;52.944;9.098;2023-04-01T12:34:50;99877.44;;;17.47;59.20
21109;BME280;10712;52.944;9.098;2023-04-01T12:40:31;99882.66;;;17.30;59.50
21109;BME280;10712;52.944;9.098;2023-04-01T12:49:38;99905.06;;;17.31;59.04
21109;BME280;10712;52.944;9.098;2023-04-01T12:58:01;99910.44;;;17.13;59.35
21109;BME280;10712;52.944;9.098;2023-04-01T13:01:25;99922.31;;;16.93;59.26
21109;BME280;10712;52.944;9.098;2023-04-01T13:15:58;99950.31;;;17.00;58.71
21109;BME280;10712;52.944;9.098;2023-04-01T13:27:40;99973.66;;;16.72;59.10
21109;BME280;10712;52.944;9.098;2023-04-01T13:30:34;99976.59;;;16.79;59.04
21109;BME280;10712;52.944;9.098;2023-04-01T13:33:17;99984.25;;;17.01;58.62
21109;BME280;10712;52.944;9.098;2023-04-01T13:39:34;99993.75;;;16.68;59.01
21109;BME280;10712;52.944;9.098;2023-04-01T13:42:28;100004.38;;;16.70;58.30
21109;BME280;10712;52.944;9.098;2023-04-01T13:45:18;100004.19;;;16.81;57.90
21109;BME280;10712;52.944;9.098;2023-04-01T13:54:05;100024.34;;;16.58;58.10
21109;BME280;10712;52.944;9.098;2023-04-01T13:57:28;100033.97;;;16.50;58.32
21109;BME280;10712;52.944;9.098;2023-04-01T14:00:31;100023.19;;;16.70;57.61
21109;BME280;10712;52.944;9.098;2023-04-01T14:09:36;100049.16;;;16.23;59.33
21109;BME280;10712;52.944;9.098;2023-04-01T14:12:42;100054.34;;;16.34;58.80
21109;BME280;10712;52.944;9.098;2023-04-01T14:19:06;100065.97;;;16.34;58.80
21109;BME280;10712;52.944;9.098;2023-04-01T14:25:06;100072.75;;;16.19;59.40
21109;BME280;10712;52.944;9.098;2023-04-01T14:28:31;100078.97;;;16.20;59.19
21109;BME280;10712;52.944;9.098;2023-04-01T14:49:43;100117.31;;;16.02;58.84
21109;BME280;10712;52.944;9.098;2023-04-01T14:52:36;100119.59;;;16.17;57.97
21109;BME280;10712;52.944;9.098;2023-04-01T14:55:34;100133.72;;;16.19;58.19
21109;BME280;10712;52.944;9.098;2023-04-01T15:03:48;100141.19;;;15.96;59.03
21109;BME280;10712;52.944;9.098;2023-04-01T15:12:27;100154.16;;;15.91;58.54
21109;BME280;10712;52.944;9.098;2023-04-01T15:16:16;100162.53;;;15.57;58.84
21109;BME280;10712;52.944;9.098;2023-04-01T15:24:35;100178.31;;;15.51;59.10
21109;BME280;10712;52.944;9.098;2023-04-01T15:27:29;100185.78;;;15.77;58.17
21109;BME280;10712;52.944;9.098;2023-04-01T15:30:24;100197.13;;;15.81;58.30
21109;BME280;10712;52.944;9.098;2023-04-01T15:33:29;100204.72;;;15.66;58.39
21109;BME280;10712;52.944;9.098;2023-04-01T15:36:39;100201.84;;;15.58;58.29
21109;BME280;10712;52.944;9.098;2023-04-01T15:42:03;100219.25;;;15.43;58.66
21109;BME280;10712;52.944;9.098;2023-04-01T15:44:48;100230.50;;;15.37;58.54
21109;BME280;10712;52.944;9.098;2023-04-01T15:47:39;100235.19;;;15.56;57.95
21109;BME280;10712;52.944;9.098;2023-04-01T15:50:42;100231.97;;;15.41;58.05
21109;BME280;10712;52.944;9.098;2023-04-01T15:59:47;100246.75;;;15.35;57.71
21109;BME280;10712;52.944;9.098;2023-04-01T16:03:13;100258.94;;;15.19;58.05
21109;BME280;10712;52.944;9.098;2023-04-01T16:23:49;100303.44;;;14.57;58.27
21109;BME280;10712;52.944;9.098;2023-04-01T16:31:55;100321.34;;;14.57;58.60
21109;BME280;10712;52.944;9.098;2023-04-01T16:37:34;100334.03;;;14.55;58.17
21109;BME280;10712;52.944;9.098;2023-04-01T16:42:56;100344.59;;;14.68;57.85
21109;BME280;10712;52.944;9.098;2023-04-01T16:49:25;100361.78;;;14.65;57.56
21109;BME280;10712;52.944;9.098;2023-04-01T16:54:31;100374.66;;;14.82;57.45
21109;BME280;10712;52.944;9.098;2023-04-01T16:57:21;100380.38;;;14.89;57.24
21109;BME280;10712;52.944;9.098;2023-04-01T17:03:03;100397.63;;;14.42;58.12
21109;BME280;10712;52.944;9.098;2023-04-01T17:05:46;100402.50;;;14.48;57.96
21109;BME280;10712;52.944;9.098;2023-04-01T17:08:43;100406.16;;;14.47;57.72
21109;BME280;10712;52.944;9.098;2023-04-01T17:11:27;100419.50;;;14.25;58.25
21109;BME280;10712;52.944;9.098;2023-04-01T17:14:23;100422.75;;;14.52;57.15
21109;BME280;10712;52.944;9.098;2023-04-01T17:17:11;100426.88;;;14.45;56.76
21109;BME280;10712;52.944;9.098;2023-04-01T17:31:39;100464.97;;;14.37;57.29
21109;BME280;10712;52.944;9.098;2023-04-01T17:34:40;100481.38;;;14.22;57.55
21109;BME280;10712;52.944;9.098;2023-04-01T17:52:39;100510.59;;;14.13;57.41
21109;BME280;10712;52.944;9.098;2023-04-01T17:55:32;100515.25;;;14.23;57.39
21109;BME280;10712;52.944;9.098;2023-04-01T18:07:12;100543.34;;;13.82;57.93
21109;BME280;10712;52.944;9.098;2023-04-01T18:10:08;100551.41;;;13.93;57.68
21109;BME280;10712;52.944;9.098;2023-04-01T18:12:45;100555.75;;;13.83;57.71
21109;BME280;10712;52.944;9.098;2023-04-01T18:15:38;100568.91;;;13.86;57.30
21109;BME280;10712;52.944;9.098;2023-04-01T18:24:42;100596.09;;;13.69;57.04
21109;BME280;10712;52.944;9.098;2023-04-01T18:29:40;100606.28;;;13.64;57.24
21109;BME280;10712;52.944;9.098;2023-04-01T18:32:36;100621.16;;;13.68;57.40
21109;BME280;10712;52.944;9.098;2023-04-01T18:38:15;100627.38;;;13.56;57.49
21109;BME280;10712;52.944;9.098;2023-04-01T18:41:12;100630.75;;;13.47;57.66
21109;BME280;10712;52.944;9.098;2023-04-01T18:50:00;100655.00;;;13.69;56.21
21109;BME280;10712;52.944;9.098;2023-04-01T18:52:36;100662.94;;;13.58;56.59
21109;BME280;10712;52.944;9.098;2023-04-01T18:57:54;100682.63;;;13.57;56.88
21109;BME280;10712;52.944;9.098;2023-04-01T19:00:36;100683.47;;;13.57;56.77
21109;BME280;10712;52.944;9.098;2023-04-01T19:03:31;100691.66;;;13.30;57.38
21109;BME280;10712;52.944;9.098;2023-04-01T19:06:13;100693.78;;;13.38;57.11
21109;BME280;10712;52.944;9.098;2023-04-01T19:08:41;100704.28;;;13.28;57.32
21109;BME280;10712;52.944;9.098;2023-04-01T19:11:39;100706.63;;;13.46;56.74
21109;BME280;10712;52.944;9.098;2023-04-01T19:14:44;100715.63;;;13.45;56.83
21109;BME280;10712;52.944;9.098;2023-04-01T19:17:51;100724.84;;;13.40;57.01
21109;BME280;10712;52.944;9.098;2023-04-01T19:20:33;100733.16;;;13.49;56.75
21109;BME280;10712;52.944;9.098;2023-04-01T19:26:04;100729.13;;;13.30;56.88
21109;BME280;10712;52.944;9.098;2023-04-01T19:28:58;100745.25;;;13.16;57.03
21109;BME280;10712;52.944;9.098;2023-04-01T19:37:08;100761.22;;;13.30;56.28
21109;BME280;10712;52.944;9.098;2023-04-01T19:39:54;100770.56;;;12.98;56.79
21109;BME280;10712;52.944;9.098;2023-04-01T19:43:01;100778.69;;;12.96;56.78
21109;BME280;10712;52.944;9.098;2023-04-01T19:45:32;100778.88;;;12.93;56.46
21109;BME280;10712;52.944;9.098;2023-04-01T19:48:43;100785.09;;;12.94;56.56
21109;BME280;10712;52.944;9.098;2023-04-01T19:51:48;100800.47;;;12.78;56.56
21109;BME280;10712;52.944;9.098;2023-04-01T19:54:25;100810.59;;;12.73;56.94
21109;BME280;10712;52.944;9.098;2023-04-01T20:00:07;100812.66;;;12.82;56.10
21109;BME280;10712;52.944;9.098;2023-04-01T20:03:00;100821.47;;;12.96;55.69
21109;BME280;10712;52.944;9.098;2023-04-01T20:05:47;100834.44;;;12.76;56.15
21109;BME280;10712;52.944;9.098;2023-04-01T20:11:20;100845.91;;;12.78;55.90
21109;BME280;10712;52.944;9.098;2023-04-01T20:14:13;100840.59;;;12.90;55.36
21109;BME280;10712;52.944;9.098;2023-04-01T20:17:26;100843.91;;;12.94;55.18
21109;BME280;10712;52.944;9.098;2023-04-01T20:20:20;100866.66;;;12.87;55.59
21109;BME280;10712;52.944;9.098;2023-04-01T20:23:07;100864.16;;;12.71;56.09
21109;BME280;10712;52.944;9.098;2023-04-01T20:25:56;100866.13;;;12.82;55.81
21109;BME280;10712;52.944;9.098;2023-04-01T20:28:42;100876.81;;;12.82;55.44
21109;BME280;10712;52.944;9.098;2023-04-01T20:31:27;100883.44;;;12.76;55.50
21109;BME280;10712;52.944;9.098;2023-04-01T20:34:19;100888.38;;;12.82;55.59
21109;BME280;10712;52.944;9.098;2023-04-01T20:40:39;100905.00;;;12.73;55.85
21109;BME280;10712;52.944;9.098;2023-04-01T20:46:50;100912.19;;;12.58;56.22
21109;BME280;10712;52.944;9.098;2023-04-01T20:49:51;100917.41;;;12.74;55.30
21109;BME280;10712;52.944;9.098;2023-04-01T21:03:57;100939.91;;;12.57;55.49
21109;BME280;10712;52.944;9.098;2023-04-01T21:06:51;100944.19;;;12.32;55.58
21109;BME280;10712;52.944;9.098;2023-04-01T21:09:47;100955.06;;;12.43;55.08
21109;BME280;10712;52.944;9.098;2023-04-01T21:12:46;100965.38;;;12.49;55.06
21109;BME280;10712;52.944;9.098;2023-04-01T21:20:50;100985.50;;;12.26;55.33
21109;BME280;10712;52.944;9.098;2023-04-01T21:26:32;100992.66;;;12.40;54.59
21109;BME280;10712;52.944;9.098;2023-04-01T21:29:47;101009.03;;;12.05;55.32
21109;BME280;10712;52.944;9.098;2023-04-01T21:32:58;101011.44;;;12.10;55.02
21109;BME280;10712;52.944;9.098;2023-04-01T21:35:40;101008.97;;;12.21;54.70
21109;BME280;10712;52.944;9.098;2023-04-01T21:39:05;101019.28;;;12.27;54.82
21109;BME280;10712;52.944;9.098;2023-04-01T21:57:17;101056.16;;;12.06;54.11
21109;BME280;10712;52.944;9.098;2023-04-01T22:05:37;101073.41;;;12.01;53.94
21109;BME280;10712;52.944;9.098;2023-04-01T22:08:41;101077.66;;;11.89;54.19
21109;BME280;10712;52.944;9.098;2023-04-01T22:11:41;101073.97;;;12.06;53.50
21109;BME280;10712;52.944;9.098;2023-04-01T22:14:37;101073.25;;;11.88;53.09
21109;BME280;10712;52.944;9.098;2023-04-01T22:23:14;101096.94;;;11.94;52.57
21109;BME280;10712;52.944;9.098;2023-04-01T22:26:23;101110.53;;;11.90;52.79
21109;BME280;10712;52.944;9.098;2023-04-01T22:29:12;101110.53;;;11.90;52.15